createdAt,value
2022-11-24T00:01:09.057Z,11.19
2022-11-24T00:03:35.953Z,11.24
2022-11-24T00:06:07.687Z,11.09
2022-11-24T00:08:35.407Z,11.16
2022-11-24T00:11:07.927Z,11.05
2022-11-24T00:13:35.412Z,10.93
2022-11-24T00:16:11.929Z,10.88
2022-11-24T00:18:42.805Z,10.86
2022-11-24T00:21:09.921Z,10.77
2022-11-24T00:23:37.373Z,10.73
2022-11-24T00:26:08.137Z,10.84
2022-11-24T00:28:35.745Z,10.79
2022-11-24T00:31:02.770Z,10.86
2022-11-24T00:33:29.402Z,10.77
2022-11-24T00:35:57.299Z,10.70
2022-11-24T00:38:24.367Z,10.70
2022-11-24T00:40:52.134Z,10.58
2022-11-24T00:43:19.417Z,10.45
2022-11-24T00:45:46.117Z,10.45
2022-11-24T00:48:12.640Z,10.47
2022-11-24T00:50:39.123Z,10.40
2022-11-24T00:53:05.654Z,10.35
2022-11-24T00:55:32.239Z,10.43
2022-11-24T00:57:58.786Z,10.41
2022-11-24T01:00:26.420Z,10.38
2022-11-24T01:02:53.281Z,10.44
2022-11-24T01:05:20.178Z,10.46
2022-11-24T01:07:46.726Z,10.44
2022-11-24T01:10:13.738Z,10.42
2022-11-24T01:12:40.271Z,10.42
2022-11-24T01:15:07.141Z,10.37
2022-11-24T01:17:33.702Z,10.34
2022-11-24T01:20:00.187Z,10.34
2022-11-24T01:22:27.476Z,10.27
2022-11-24T01:24:53.979Z,10.29
2022-11-24T01:27:20.470Z,10.29
2022-11-24T01:29:46.990Z,10.47
2022-11-24T01:32:13.529Z,10.38
2022-11-24T01:34:40.026Z,10.38
2022-11-24T01:37:06.516Z,10.44
2022-11-24T01:39:32.993Z,10.49
2022-11-24T01:42:02.256Z,10.51
2022-11-24T01:44:31.196Z,10.50
2022-11-24T01:47:02.510Z,10.48
2022-11-24T01:49:44.710Z,10.43
2022-11-24T01:52:17.305Z,10.46
2022-11-24T01:55:01.944Z,10.54
2022-11-24T01:57:33.722Z,10.43
2022-11-24T02:00:04.960Z,10.56
2022-11-24T02:02:31.547Z,10.50
2022-11-24T02:05:03.922Z,10.41
2022-11-24T02:07:31.037Z,10.39
2022-11-24T02:10:04.728Z,10.36
2022-11-24T02:12:32.839Z,10.30
2022-11-24T02:14:59.670Z,10.40
2022-11-24T02:17:26.197Z,10.30
2022-11-24T02:19:58.670Z,10.37
2022-11-24T02:23:02.367Z,10.25
2022-11-24T02:25:40.507Z,10.19
2022-11-24T02:28:10.467Z,10.23
2022-11-24T02:30:37.133Z,10.23
2022-11-24T02:33:04.009Z,10.17
2022-11-24T02:35:31.652Z,10.25
2022-11-24T02:37:58.200Z,10.19
2022-11-24T02:40:28.040Z,10.13
2022-11-24T02:42:58.805Z,10.11
2022-11-24T02:45:26.604Z,10.13
2022-11-24T02:47:53.070Z,10.18
2022-11-24T02:50:20.323Z,10.16
2022-11-24T02:52:46.906Z,10.08
2022-11-24T02:55:13.425Z,10.01
2022-11-24T02:57:39.894Z,9.97
2022-11-24T03:00:07.098Z,9.92
2022-11-24T03:02:33.735Z,9.95
2022-11-24T03:05:00.291Z,9.90
2022-11-24T03:07:26.822Z,9.87
2022-11-24T03:09:53.382Z,9.88
2022-11-24T03:12:20.427Z,9.96
2022-11-24T03:14:46.878Z,9.97
2022-11-24T03:17:13.413Z,10.06
2022-11-24T03:19:39.950Z,10.06
2022-11-24T03:22:06.459Z,10.16
2022-11-24T03:24:33.229Z,10.13
2022-11-24T03:26:59.852Z,10.16
2022-11-24T03:29:26.424Z,10.07
2022-11-24T03:31:52.939Z,9.94
2022-11-24T03:34:19.420Z,9.92
2022-11-24T03:36:45.905Z,9.90
2022-11-24T03:39:12.441Z,10.01
2022-11-24T03:41:39.005Z,9.90
2022-11-24T03:44:05.842Z,9.95
2022-11-24T03:46:32.516Z,9.99
2022-11-24T03:48:59.173Z,9.91
2022-11-24T03:51:25.674Z,9.93
2022-11-24T03:53:52.488Z,9.99
2022-11-24T03:56:18.940Z,9.89
2022-11-24T03:58:45.414Z,9.77
2022-11-24T04:01:11.937Z,9.74
2022-11-24T04:03:38.424Z,9.84
2022-11-24T04:06:04.919Z,9.87
2022-11-24T04:08:31.433Z,9.87
2022-11-24T04:10:58.176Z,9.95
2022-11-24T04:13:25.742Z,10.09
2022-11-24T04:15:52.921Z,10.04
2022-11-24T04:18:19.876Z,10.10
2022-11-24T04:20:48.683Z,10.10
2022-11-24T04:23:16.689Z,9.89
2022-11-24T04:25:43.769Z,9.91
2022-11-24T04:28:10.367Z,9.90
2022-11-24T04:30:38.529Z,9.89
2022-11-24T04:33:05.035Z,9.89
2022-11-24T04:35:31.499Z,9.83
2022-11-24T04:38:02.371Z,9.88
2022-11-24T04:40:28.955Z,10.01
2022-11-24T04:42:56.324Z,9.90
2022-11-24T04:45:23.489Z,9.91
2022-11-24T04:47:50.277Z,9.85
2022-11-24T04:50:17.349Z,9.76
2022-11-24T04:52:43.889Z,9.64
2022-11-24T04:55:11.149Z,9.67
2022-11-24T04:57:37.677Z,9.69
2022-11-24T05:00:04.549Z,9.60
2022-11-24T05:02:31.086Z,9.57
2022-11-24T05:04:57.650Z,9.49
2022-11-24T05:07:24.130Z,9.44
2022-11-24T05:10:09.056Z,9.47
2022-11-24T05:12:35.574Z,9.43
2022-11-24T05:15:04.566Z,9.47
2022-11-24T05:17:32.813Z,9.53
2022-11-24T05:19:59.911Z,9.47
2022-11-24T05:22:28.783Z,9.42
2022-11-24T05:24:55.375Z,9.29
2022-11-24T05:27:22.079Z,9.26
2022-11-24T05:29:48.676Z,9.23
2022-11-24T05:32:15.666Z,9.25
2022-11-24T05:34:42.211Z,9.27
2022-11-24T05:37:08.977Z,9.18
2022-11-24T05:39:36.337Z,9.25
2022-11-24T05:42:30.492Z,9.37
2022-11-24T05:44:57.574Z,9.35
2022-11-24T05:47:24.614Z,9.32
2022-11-24T05:49:52.031Z,9.20
2022-11-24T05:52:18.708Z,9.21
2022-11-24T05:54:45.212Z,9.06
2022-11-24T05:57:13.145Z,9.06
2022-11-24T05:59:39.631Z,9.07
2022-11-24T06:02:06.254Z,8.99
2022-11-24T06:04:33.333Z,8.96
2022-11-24T06:07:00.588Z,8.89
2022-11-24T06:09:27.254Z,8.90
2022-11-24T06:11:53.757Z,8.91
2022-11-24T06:14:20.480Z,8.86
2022-11-24T06:16:47.252Z,8.71
2022-11-24T06:19:13.864Z,8.67
2022-11-24T06:21:40.362Z,8.65
2022-11-24T06:24:07.399Z,8.66
2022-11-24T06:26:33.963Z,8.69
2022-11-24T06:29:00.645Z,8.61
2022-11-24T06:31:27.180Z,8.59
2022-11-24T06:33:53.887Z,8.58
2022-11-24T06:36:20.509Z,8.48
2022-11-24T06:38:47.040Z,8.52
2022-11-24T06:41:15.485Z,8.45
2022-11-24T06:43:42.434Z,8.47
2022-11-24T06:46:09.145Z,8.48
2022-11-24T06:48:35.829Z,8.48
2022-11-24T06:51:04.539Z,8.55
2022-11-24T06:53:38.295Z,8.55
2022-11-24T06:56:12.178Z,8.50
2022-11-24T06:58:44.954Z,8.45
2022-11-24T07:01:18.103Z,8.52
2022-11-24T07:03:45.530Z,8.57
2022-11-24T07:06:12.138Z,8.56
2022-11-24T07:08:38.709Z,8.51
2022-11-24T07:11:06.772Z,8.51
2022-11-24T07:13:33.338Z,8.54
2022-11-24T07:16:01.049Z,8.65
2022-11-24T07:18:27.644Z,8.65
2022-11-24T07:20:54.148Z,8.64
2022-11-24T07:23:20.626Z,8.68
2022-11-24T07:25:47.112Z,8.77
2022-11-24T07:28:13.689Z,8.91
2022-11-24T07:30:40.226Z,8.93
2022-11-24T07:33:06.802Z,9.02
2022-11-24T07:35:33.306Z,8.94
2022-11-24T07:37:59.837Z,8.97
2022-11-24T07:40:27.015Z,8.99
2022-11-24T07:42:54.430Z,9.04
2022-11-24T07:45:21.306Z,9.08
2022-11-24T07:47:47.878Z,8.97
2022-11-24T07:50:14.518Z,9.02
2022-11-24T07:52:41.143Z,9.12
2022-11-24T07:55:08.421Z,9.17
2022-11-24T07:57:35.512Z,8.88
2022-11-24T08:00:02.431Z,8.73
2022-11-24T08:02:28.939Z,9.02
2022-11-24T08:04:55.506Z,9.13
2022-11-24T08:07:22.113Z,9.17
2022-11-24T08:09:50.367Z,9.16
2022-11-24T08:12:21.520Z,9.02
2022-11-24T08:14:51.330Z,8.98
2022-11-24T08:17:18.383Z,9.24
2022-11-24T08:19:45.064Z,9.35
2022-11-24T08:22:11.894Z,9.40
2022-11-24T08:24:38.738Z,9.53
2022-11-24T08:27:05.260Z,9.70
2022-11-24T08:29:32.005Z,9.76
2022-11-24T08:31:58.614Z,9.50
2022-11-24T08:34:28.310Z,9.56
2022-11-24T08:36:54.808Z,9.55
2022-11-24T08:39:21.405Z,9.55
2022-11-24T08:41:47.886Z,9.41
2022-11-24T08:44:16.049Z,9.58
2022-11-24T08:46:42.691Z,9.63
2022-11-24T08:49:09.947Z,9.73
2022-11-24T08:51:37.302Z,9.88
2022-11-24T08:54:04.173Z,9.97
2022-11-24T08:56:32.645Z,9.96
2022-11-24T08:59:00.312Z,10.03
2022-11-24T09:01:27.925Z,9.71
2022-11-24T09:03:54.888Z,9.88
2022-11-24T09:06:25.319Z,10.06
2022-11-24T09:08:53.848Z,10.17
2022-11-24T09:11:21.077Z,10.24
2022-11-24T09:13:47.852Z,10.31
2022-11-24T09:16:20.277Z,10.40
2022-11-24T09:18:47.944Z,10.46
2022-11-24T09:21:17.555Z,10.43
2022-11-24T09:23:46.059Z,10.28
2022-11-24T09:26:15.239Z,10.48
2022-11-24T09:28:42.432Z,10.60
2022-11-24T09:31:12.904Z,10.65
2022-11-24T09:33:41.368Z,10.60
2022-11-24T09:36:09.026Z,10.47
2022-11-24T09:38:35.959Z,10.60
2022-11-24T09:41:17.413Z,10.75
2022-11-24T09:44:14.501Z,10.83
2022-11-24T09:46:59.899Z,10.69
2022-11-24T09:50:03.711Z,10.61
2022-11-24T09:52:40.708Z,10.90
2022-11-24T09:55:31.661Z,10.90
2022-11-24T09:58:10.876Z,10.80
2022-11-24T10:00:37.838Z,10.93
2022-11-24T10:03:05.630Z,11.05
2022-11-24T10:05:36.048Z,11.06
2022-11-24T10:08:14.680Z,11.22
2022-11-24T10:10:55.055Z,11.13
2022-11-24T10:13:38.566Z,11.25
2022-11-24T10:16:38.791Z,11.32
2022-11-24T10:19:36.961Z,11.47
2022-11-24T10:22:22.414Z,11.45
2022-11-24T10:25:08.760Z,11.63
2022-11-24T10:27:49.347Z,11.56
2022-11-24T10:30:22.067Z,11.68
2022-11-24T10:32:54.722Z,11.60
2022-11-24T10:35:28.100Z,11.69
2022-11-24T10:38:11.963Z,11.57
2022-11-24T10:41:00.472Z,11.57
2022-11-24T10:43:28.490Z,11.74
2022-11-24T10:46:00.136Z,11.77
2022-11-24T10:48:36.119Z,11.78
2022-11-24T10:51:28.841Z,11.87
2022-11-24T10:54:05.911Z,11.90
2022-11-24T10:56:40.277Z,12.22
2022-11-24T10:59:25.061Z,12.16
2022-11-24T11:01:53.207Z,12.35
2022-11-24T11:04:24.807Z,12.40
2022-11-24T11:06:51.470Z,12.44
2022-11-24T11:09:22.507Z,12.62
2022-11-24T11:11:52.674Z,12.74
2022-11-24T11:14:33.912Z,12.74
2022-11-24T11:17:00.490Z,12.77
2022-11-24T11:19:48.813Z,12.74
2022-11-24T11:22:21.025Z,12.85
2022-11-24T11:25:01.376Z,12.75
2022-11-24T11:27:27.997Z,12.77
2022-11-24T11:35:39.659Z,12.71
2022-11-24T11:38:07.432Z,12.75
2022-11-24T11:40:37.709Z,12.75
2022-11-24T11:43:24.913Z,12.76
2022-11-24T11:46:05.256Z,12.77
2022-11-24T11:48:42.416Z,12.82
2022-11-24T11:51:28.343Z,12.78
2022-11-24T11:54:19.615Z,12.76
2022-11-24T11:56:49.652Z,12.82
2022-11-24T11:59:36.908Z,13.02
2022-11-24T12:02:25.422Z,12.98
2022-11-24T12:05:05.255Z,13.05
2022-11-24T12:07:38.096Z,12.94
2022-11-24T12:10:41.657Z,12.96
2022-11-24T12:13:14.029Z,13.06
2022-11-24T12:15:56.421Z,13.03
2022-11-24T12:18:57.511Z,13.07
2022-11-24T12:21:54.826Z,13.08
2022-11-24T12:24:34.899Z,13.10
2022-11-24T12:27:10.662Z,13.09
2022-11-24T12:29:49.323Z,13.10
2022-11-24T12:32:19.845Z,13.09
2022-11-24T12:35:03.221Z,13.13
2022-11-24T12:37:49.771Z,12.98
2022-11-24T12:40:47.259Z,13.03
2022-11-24T12:43:38.797Z,13.03
2022-11-24T12:46:21.135Z,13.16
2022-11-24T12:49:21.430Z,13.28
2022-11-24T12:51:58.188Z,13.45
2022-11-24T12:54:29.571Z,13.62
2022-11-24T12:57:05.632Z,13.72
2022-11-24T13:00:07.695Z,13.82
2022-11-24T13:02:53.115Z,13.85
2022-11-24T13:05:46.718Z,13.78
2022-11-24T13:08:14.449Z,13.78
2022-11-24T13:10:57.986Z,13.87
2022-11-24T13:13:35.529Z,13.88
2022-11-24T13:19:07.900Z,13.75
2022-11-24T13:21:40.397Z,13.79
2022-11-24T13:24:23.853Z,13.82
2022-11-24T13:27:13.478Z,13.86
2022-11-24T13:29:42.244Z,13.97
2022-11-24T13:32:08.789Z,13.83
2022-11-24T13:34:42.787Z,14.07
2022-11-24T13:37:31.377Z,14.11
2022-11-24T13:40:03.701Z,14.02
2022-11-24T13:42:42.403Z,14.12
2022-11-24T13:45:39.788Z,14.18
2022-11-24T13:48:22.229Z,14.25
2022-11-24T13:50:58.454Z,14.29
2022-11-24T13:53:44.009Z,14.33
2022-11-24T13:56:13.356Z,14.32
2022-11-24T13:58:48.649Z,14.32
2022-11-24T14:01:21.856Z,14.34
2022-11-24T14:04:43.433Z,14.34
2022-11-24T14:07:09.035Z,14.37
2022-11-24T14:09:36.034Z,14.41
2022-11-24T14:12:20.423Z,14.49
2022-11-24T14:14:49.569Z,14.53
2022-11-24T14:17:24.623Z,14.57
2022-11-24T14:19:55.536Z,14.48
2022-11-24T14:22:48.369Z,14.49
2022-11-24T14:25:21.103Z,14.38
2022-11-24T14:27:47.860Z,14.34
2022-11-24T14:30:14.362Z,14.35
2022-11-24T14:32:42.233Z,14.51
2022-11-24T14:35:25.321Z,14.52
2022-11-24T14:37:52.177Z,14.38
2022-11-24T14:40:40.573Z,14.44
2022-11-24T14:43:18.796Z,14.37
2022-11-24T14:46:01.264Z,14.45
2022-11-24T14:48:39.819Z,14.27
2022-11-24T14:51:14.603Z,14.28
2022-11-24T14:53:43.654Z,14.30
2022-11-24T14:56:30.448Z,14.29
2022-11-24T14:58:58.233Z,14.19
2022-11-24T15:01:27.837Z,14.16
2022-11-24T15:04:38.756Z,14.15
2022-11-24T15:07:19.151Z,14.12
2022-11-24T15:09:48.728Z,14.07
2022-11-24T15:12:43.164Z,14.03
2022-11-24T15:15:15.681Z,14.01
2022-11-24T15:17:49.986Z,14.03
2022-11-24T15:20:19.325Z,14.09
2022-11-24T15:22:45.840Z,14.06
2022-11-24T15:25:33.923Z,14.05
2022-11-24T15:28:01.013Z,13.87
2022-11-24T15:30:28.183Z,13.83
2022-11-24T15:32:57.444Z,13.94
2022-11-24T15:35:26.009Z,13.90
2022-11-24T15:37:52.995Z,13.83
2022-11-24T15:40:20.208Z,13.99
2022-11-24T15:42:54.058Z,13.88
2022-11-24T15:45:22.871Z,13.61
2022-11-24T15:47:51.154Z,13.65
2022-11-24T15:50:18.532Z,13.83
2022-11-24T15:52:45.972Z,13.96
2022-11-24T15:55:18.727Z,13.91
2022-11-24T15:57:46.027Z,13.85
2022-11-24T16:00:18.406Z,13.88
2022-11-24T16:02:45.259Z,13.85
2022-11-24T16:05:13.239Z,13.69
2022-11-24T16:07:40.495Z,13.68
2022-11-24T16:10:14.847Z,13.79
2022-11-24T16:12:41.432Z,13.83
2022-11-24T16:15:08.466Z,13.93
2022-11-24T16:17:35.195Z,13.86
2022-11-24T16:20:03.102Z,13.51
2022-11-24T16:22:29.908Z,13.42
2022-11-24T16:24:56.712Z,13.58
2022-11-24T16:27:23.331Z,13.61
2022-11-24T16:29:49.894Z,13.48
2022-11-24T16:32:16.524Z,13.46
2022-11-24T16:34:43.086Z,13.41
2022-11-24T16:37:09.895Z,13.33
2022-11-24T16:39:36.414Z,13.31
2022-11-24T16:42:03.612Z,13.30
2022-11-24T16:44:30.121Z,13.28
2022-11-24T16:46:57.115Z,13.29
2022-11-24T16:49:23.630Z,13.26
2022-11-24T16:51:50.255Z,13.25
2022-11-24T16:54:16.720Z,13.12
2022-11-24T16:56:44.404Z,13.04
2022-11-24T16:59:10.926Z,13.02
2022-11-24T17:01:40.056Z,13.00
2022-11-24T17:04:12.263Z,13.00
2022-11-24T17:06:39.688Z,13.03
2022-11-24T17:09:06.806Z,13.01
2022-11-24T17:11:33.333Z,12.99
2022-11-24T17:13:59.792Z,13.08
2022-11-24T17:16:27.553Z,13.04
2022-11-24T17:18:55.320Z,13.01
2022-11-24T17:21:26.962Z,13.03
2022-11-24T17:23:56.565Z,13.06
2022-11-24T17:26:23.887Z,13.02
2022-11-24T17:28:50.915Z,12.76
2022-11-24T17:31:35.819Z,12.93
2022-11-24T17:34:05.620Z,13.04
2022-11-24T17:36:33.781Z,13.06
2022-11-24T17:39:04.378Z,13.05
2022-11-24T17:41:31.743Z,13.08
2022-11-24T17:43:58.310Z,13.07
2022-11-24T17:46:26.617Z,13.02
2022-11-24T17:48:53.892Z,13.03
2022-11-24T17:51:22.953Z,13.02
2022-11-24T17:53:52.245Z,12.96
2022-11-24T17:56:24.097Z,12.92
2022-11-24T17:58:56.073Z,12.83
2022-11-24T18:01:23.450Z,12.84
2022-11-24T18:03:53.428Z,12.89
2022-11-24T18:06:20.517Z,12.93
2022-11-24T18:08:47.667Z,12.96
2022-11-24T18:11:14.181Z,12.91
2022-11-24T18:13:56.741Z,12.87
2022-11-24T18:16:28.256Z,12.88
2022-11-24T18:19:07.808Z,12.87
2022-11-24T18:21:35.214Z,12.86
2022-11-24T18:24:01.911Z,12.88
2022-11-24T18:26:28.799Z,12.78
2022-11-24T18:28:55.350Z,12.68
2022-11-24T18:31:22.509Z,12.81
2022-11-24T18:33:49.416Z,12.83
2022-11-24T18:36:18.953Z,12.78
2022-11-24T18:38:46.038Z,12.81
2022-11-24T18:41:14.096Z,12.83
2022-11-24T18:43:41.204Z,12.80
2022-11-24T18:46:11.498Z,12.77
2022-11-24T18:48:38.093Z,12.78
2022-11-24T18:51:05.106Z,12.75
2022-11-24T18:53:31.700Z,12.75
2022-11-24T18:56:00.691Z,12.74
2022-11-24T18:58:30.211Z,12.70
2022-11-24T19:01:14.539Z,12.73
2022-11-24T19:03:48.662Z,12.85
2022-11-24T19:06:20.864Z,12.79
2022-11-24T19:08:48.347Z,12.74
2022-11-24T19:11:28.112Z,12.67
2022-11-24T19:13:56.097Z,12.69
2022-11-24T19:16:23.338Z,12.66
2022-11-24T19:18:54.146Z,12.69
2022-11-24T19:21:21.471Z,12.62
2022-11-24T19:23:48.007Z,12.56
2022-11-24T19:26:14.883Z,12.55
2022-11-24T19:28:41.396Z,12.50
2022-11-24T19:31:10.853Z,12.43
2022-11-24T19:33:37.816Z,12.43
2022-11-24T19:36:11.983Z,12.40
2022-11-24T19:38:39.094Z,12.36
2022-11-24T19:41:08.790Z,12.27
2022-11-24T19:43:35.504Z,12.26
2022-11-24T19:46:04.474Z,12.30
2022-11-24T19:48:36.573Z,12.21
2022-11-24T19:51:08.278Z,12.21
2022-11-24T19:53:35.828Z,12.26
2022-11-24T19:56:11.285Z,12.17
2022-11-24T19:58:39.130Z,12.15
2022-11-24T20:01:10.814Z,12.16
2022-11-24T20:03:39.225Z,12.17
2022-11-24T20:06:08.147Z,12.17
2022-11-24T20:08:37.191Z,12.11
2022-11-24T20:11:09.445Z,12.11
2022-11-24T20:13:37.627Z,12.11
2022-11-24T20:16:06.184Z,12.10
2022-11-24T20:18:37.611Z,12.13
2022-11-24T20:21:13.671Z,12.15
2022-11-24T20:23:41.189Z,12.13
2022-11-24T20:26:22.868Z,12.06
2022-11-24T20:28:50.641Z,12.10
2022-11-24T20:31:23.181Z,12.00
2022-11-24T20:33:49.808Z,12.06
2022-11-24T20:36:19.904Z,12.10
2022-11-24T20:38:47.579Z,12.07
2022-11-24T20:41:16.821Z,11.99
2022-11-24T20:43:44.730Z,12.04
2022-11-24T20:46:20.502Z,12.03
2022-11-24T20:48:47.511Z,11.94
2022-11-24T20:51:22.700Z,11.90
2022-11-24T20:53:50.624Z,11.91
2022-11-24T20:56:25.489Z,11.94
2022-11-24T20:58:52.486Z,11.85
2022-11-24T21:01:25.079Z,11.91
2022-11-24T21:03:53.828Z,12.00
2022-11-24T21:06:20.791Z,11.98
2022-11-24T21:08:47.345Z,12.00
2022-11-24T21:11:15.142Z,12.03
2022-11-24T21:13:44.354Z,12.04
2022-11-24T21:16:25.301Z,12.11
2022-11-24T21:18:54.941Z,12.09
2022-11-24T21:21:23.109Z,12.09
2022-11-24T21:23:50.402Z,12.06
2022-11-24T21:26:18.107Z,11.99
2022-11-24T21:28:46.709Z,11.95
2022-11-24T21:31:19.653Z,11.97
2022-11-24T21:33:51.929Z,11.92
2022-11-24T21:36:21.990Z,11.91
2022-11-24T21:38:53.164Z,11.86
2022-11-24T21:41:20.711Z,11.80
2022-11-24T21:43:47.863Z,11.81
2022-11-24T21:46:14.805Z,11.70
2022-11-24T21:48:42.347Z,11.60
2022-11-24T21:51:15.498Z,11.49
2022-11-24T21:53:43.865Z,11.51
2022-11-24T21:56:13.089Z,11.54
2022-11-24T21:58:48.175Z,11.51
2022-11-24T22:01:16.481Z,11.51
2022-11-24T22:03:43.958Z,11.46
2022-11-24T22:06:10.806Z,11.43
2022-11-24T22:08:37.599Z,11.31
2022-11-24T22:11:07.210Z,11.28
2022-11-24T22:13:34.502Z,11.26
2022-11-24T22:16:06.655Z,11.27
2022-11-24T22:18:34.687Z,11.17
2022-11-24T22:21:04.972Z,11.21
2022-11-24T22:23:32.484Z,11.19
2022-11-24T22:26:29.012Z,11.12
2022-11-24T22:28:57.112Z,11.18
2022-11-24T22:31:32.275Z,11.18
2022-11-24T22:34:00.662Z,11.28
2022-11-24T22:36:30.075Z,11.29
2022-11-24T22:39:04.345Z,11.34
2022-11-24T22:41:32.834Z,11.05
2022-11-24T22:43:59.321Z,11.29
2022-11-24T22:46:27.973Z,11.34
2022-11-24T22:48:55.308Z,11.35
2022-11-24T22:51:29.309Z,11.39
2022-11-24T22:53:58.092Z,11.32
2022-11-24T22:56:25.356Z,11.25
2022-11-24T22:58:52.047Z,11.31
2022-11-24T23:01:25.876Z,11.33
2022-11-24T23:03:56.467Z,11.38
2022-11-24T23:06:25.821Z,11.33
2022-11-24T23:08:53.277Z,11.38
2022-11-24T23:11:31.585Z,11.46
2022-11-24T23:14:02.420Z,11.45
2022-11-24T23:16:30.114Z,11.41
2022-11-24T23:18:57.496Z,11.48
2022-11-24T23:21:29.775Z,11.50
2022-11-24T23:23:58.306Z,11.59
2022-11-24T23:26:34.230Z,11.56
2022-11-24T23:29:00.862Z,11.55
2022-11-24T23:31:28.860Z,11.48
2022-11-24T23:33:59.918Z,11.38
2022-11-24T23:36:27.717Z,11.36
2022-11-24T23:38:54.446Z,11.44
2022-11-24T23:41:24.046Z,11.27
2022-11-24T23:43:53.642Z,11.35
2022-11-24T23:46:22.332Z,11.44
2022-11-24T23:48:50.688Z,11.23
2022-11-24T23:51:23.192Z,11.14
2022-11-24T23:53:50.757Z,11.05
2022-11-24T23:56:20.003Z,11.11
2022-11-24T23:58:47.078Z,11.27
